Time;durP1;ratioP1;P1;durP2;ratioP2;P2;SDS_P1;SDS_P2;PMS_P1;PMS_P2;Temp;Humidity;BMP_temperature;BMP_pressure;BME280_temperature;BME280_humidity;BME280_pressure;Samples;Min_cycle;Max_cycle;Signal;HPM_P1;HPM_P2
2023/03/10 08:26:21;;;;;;;6.18;1.60;;;;;;;6.50;86.25;94310.66;2084337;28;20573;-59
2023/03/10 08:27:22;;;;;;;2.05;0.68;;;;;;;6.83;85.02;94317.16;2081118;28;20478;-58
2023/03/10 08:28:24;;;;;;;3.30;0.60;;;;;;;6.91;85.41;94339.97;2080809;28;20241;-59
2023/03/10 08:35:42;;;;;;;2.08;0.68;;;;;;;6.93;87.75;94332.94;2084451;28;20564;-60
2023/03/10 08:36:44;;;;;;;3.58;0.80;;;;;;;7.95;84.26;94330.31;2082518;28;20691;-60
2023/03/10 08:37:45;;;;;;;3.20;0.80;;;;;;;8.47;80.87;94338.75;2079221;28;20204;-61
2023/03/10 08:38:47;;;;;;;5.35;1.10;;;;;;;8.82;78.49;94337.91;2074617;28;20663;-60
2023/03/10 08:39:52;;;;;;;4.85;1.30;;;;;;;9.12;78.20;94339.16;2078076;28;20277;-61
2023/03/10 08:40:54;;;;;;;4.45;0.85;;;;;;;9.40;76.63;94329.25;2078053;28;20194;-61
2023/03/10 08:41:55;;;;;;;1.67;0.70;;;;;;;9.55;75.92;94335.03;2074194;28;20200;-61
2023/03/10 08:42:57;;;;;;;1.02;0.60;;;;;;;9.52;74.41;94328.28;2077099;28;20852;-61
2023/03/10 08:43:59;;;;;;;1.10;0.60;;;;;;;9.74;74.48;94331.84;2075019;28;20591;-61
2023/03/10 08:45:02;;;;;;;1.92;0.80;;;;;;;10.59;72.61;94325.97;2077934;28;20532;-62
2023/03/10 08:46:03;;;;;;;2.15;0.70;;;;;;;10.94;71.66;94316.19;2078485;28;20205;-61
2023/03/10 08:47:08;;;;;;;1.65;0.68;;;;;;;10.49;72.01;94324.22;2081009;28;20935;-62
2023/03/10 08:48:09;;;;;;;1.48;0.65;;;;;;;10.21;72.40;94322.03;2069963;28;20237;-61
2023/03/10 08:49:13;;;;;;;2.85;1.02;;;;;;;10.80;71.48;94319.09;2071786;28;20193;-62
2023/03/10 08:50:15;;;;;;;2.85;1.15;;;;;;;10.93;68.55;94310.13;2074604;28;20243;-61
2023/03/10 08:51:17;;;;;;;2.22;0.75;;;;;;;11.28;68.38;94335.06;2074939;28;20202;-67
2023/03/10 08:52:18;;;;;;;2.17;0.70;;;;;;;11.54;66.86;94318.97;2073492;28;20209;-68
2023/03/10 08:53:19;;;;;;;1.10;0.60;;;;;;;11.48;66.17;94329.97;2072150;28;20227;-67
2023/03/10 08:54:22;;;;;;;2.95;0.70;;;;;;;11.53;66.96;94332.16;2071028;28;20656;-67
2023/03/10 08:55:24;;;;;;;2.58;0.70;;;;;;;12.06;66.18;94333.75;2073075;28;20225;-68
2023/03/10 08:56:25;;;;;;;1.35;0.50;;;;;;;11.40;66.90;94322.78;2073965;28;20210;-68
2023/03/10 08:57:27;;;;;;;4.63;1.05;;;;;;;10.98;69.32;94335.84;2073145;28;20204;-68
2023/03/10 08:58:29;;;;;;;4.30;1.00;;;;;;;10.64;70.28;94338.66;2071445;28;20221;-67
2023/03/10 08:59:31;;;;;;;5.53;1.00;;;;;;;10.53;71.29;94334.28;2075072;28;20622;-67
2023/03/10 09:00:33;;;;;;;3.70;0.80;;;;;;;10.44;70.26;94335.84;2075590;28;20665;-67
2023/03/10 09:01:36;;;;;;;3.08;0.93;;;;;;;9.97;72.10;94336.06;2071719;28;20205;-67
2023/03/10 09:02:38;;;;;;;3.30;0.90;;;;;;;9.61;73.07;94322.38;2073677;28;20202;-67
2023/03/10 09:03:43;;;;;;;3.72;0.90;;;;;;;9.50;73.78;94332.81;2074124;28;20283;-67
2023/03/10 09:04:44;;;;;;;4.03;0.93;;;;;;;9.24;75.29;94337.41;2074443;28;20664;-67
2023/03/10 09:05:46;;;;;;;7.30;1.02;;;;;;;8.91;75.92;94331.19;2077840;28;20201;-67
2023/03/10 09:06:48;;;;;;;5.78;1.02;;;;;;;8.74;76.41;94332.44;2077918;28;20256;-66
2023/03/10 09:07:49;;;;;;;4.60;0.80;;;;;;;8.53;77.46;94340.06;2074614;28;20229;-66
2023/03/10 09:08:52;;;;;;;2.45;0.82;;;;;;;8.34;78.47;94333.56;2073534;28;20217;-66
2023/03/10 09:09:53;;;;;;;3.17;1.00;;;;;;;8.37;79.81;94343.75;2073420;28;20209;-66
2023/03/10 09:10:55;;;;;;;6.03;0.90;;;;;;;8.22;81.35;94332.69;2072737;28;20206;-67
2023/03/10 09:11:57;;;;;;;4.35;0.93;;;;;;;8.22;82.10;94350.06;2074770;28;20214;-67
2023/03/10 09:12:58;;;;;;;7.35;1.85;;;;;;;8.15;83.73;94358.31;2073400;28;20232;-67
2023/03/10 09:14:17;;;;;;;4.60;0.80;;;;;;;8.00;83.85;94362.00;2074077;28;20216;-67
2023/03/10 09:20:24;;;;;;;6.03;1.30;;;;;;;7.75;86.07;94360.28;2101662;27;20563;-68
2023/03/10 09:21:30;;;;;;;5.82;1.20;;;;;;;7.88;86.07;94363.66;2098957;28;20197;-67
2023/03/10 09:22:34;;;;;;;7.05;1.75;;;;;;;8.02;87.19;94373.09;2098247;28;20210;-67
2023/03/10 09:45:13;;;;;;;5.03;1.00;;;;;;;7.92;92.30;94377.28;2082133;28;20573;-66
2023/03/10 09:46:23;;;;;;;8.85;1.60;;;;;;;8.05;92.52;94374.66;2082569;28;20188;-66
2023/03/10 09:47:35;;;;;;;4.05;1.00;;;;;;;8.09;90.72;94379.53;2096694;28;20276;-66
2023/03/10 09:48:54;;;;;;;4.60;1.70;;;;;;;8.30;90.77;94376.31;2088886;28;20642;-67
2023/03/10 09:50:32;;;;;;;7.15;1.20;;;;;;;8.29;88.69;94375.50;2073034;28;20315;-66
2023/03/10 09:51:38;;;;;;;4.22;1.00;;;;;;;8.23;88.11;94377.69;2076686;28;20679;-66
2023/03/10 09:52:45;;;;;;;2.63;0.90;;;;;;;8.17;88.45;94378.97;2074735;28;20218;-66
2023/03/10 09:53:55;;;;;;;4.50;1.00;;;;;;;8.03;88.13;94371.34;2077815;28;20205;-66
2023/03/10 10:49:30;;;;;;;2.60;0.82;;;;;;;7.52;91.74;94360.13;2090453;28;20556;-65
2023/03/10 10:51:32;;;;;;;3.10;0.60;;;;;;;7.68;92.17;94378.03;2084129;28;20562;-65
2023/03/10 10:52:34;;;;;;;4.20;0.77;;;;;;;7.76;91.73;94387.94;2081212;28;20204;-65
2023/03/10 10:53:40;;;;;;;1.30;0.70;;;;;;;7.72;88.85;94371.72;2070935;28;20287;-65
2023/03/10 11:55:20;;;;;;;1.73;0.70;;;;;;;7.55;88.08;94393.66;2083895;28;20554;-62
2023/03/10 11:56:23;;;;;;;1.15;0.60;;;;;;;7.68;87.44;94397.09;2075313;28;20608;-59
2023/03/10 11:57:29;;;;;;;3.38;0.80;;;;;;;7.82;87.62;94384.88;2075482;28;20634;-60
2023/03/10 11:58:56;;;;;;;1.40;0.80;;;;;;;8.04;87.12;94394.63;2076737;28;20684;-59
2023/03/10 12:00:01;;;;;;;1.27;0.60;;;;;;;8.08;86.89;94385.66;2075972;28;20204;-60
2023/03/10 12:01:04;;;;;;;5.05;0.60;;;;;;;8.15;85.90;94389.50;2076726;28;20214;-60
2023/03/10 12:02:12;;;;;;;1.08;0.60;;;;;;;8.20;85.20;94370.94;2076007;28;20231;-60
2023/03/10 12:03:48;;;;;;;2.45;0.70;;;;;;;8.46;85.35;94383.91;2076172;28;20220;-60
2023/03/10 12:04:57;;;;;;;2.03;0.60;;;;;;;8.60;85.97;94385.50;2075747;28;20190;-60
2023/03/10 12:06:01;;;;;;;8.55;0.70;;;;;;;8.44;84.22;94381.38;2075642;28;20204;-60
2023/03/10 12:07:20;;;;;;;1.08;0.60;;;;;;;8.31;84.25;94389.22;2074276;28;20213;-60
2023/03/10 12:08:24;;;;;;;2.40;0.60;;;;;;;8.35;85.34;94384.63;2074584;28;20290;-60
2023/03/10 12:09:41;;;;;;;4.95;1.60;;;;;;;8.36;86.71;94378.50;2077873;28;20260;-60
2023/03/10 12:10:42;;;;;;;2.08;0.80;;;;;;;8.23;86.23;94365.53;2078426;28;20964;-60
2023/03/10 12:11:45;;;;;;;1.33;0.75;;;;;;;8.34;85.69;94377.75;2078260;28;20201;-60
2023/03/10 12:12:50;;;;;;;2.78;0.90;;;;;;;8.30;85.61;94382.38;2077498;28;20268;-60
2023/03/10 12:13:57;;;;;;;1.73;0.75;;;;;;;8.34;86.07;94373.41;2077112;28;20260;-60
2023/03/10 12:15:04;;;;;;;1.27;0.60;;;;;;;8.21;84.38;94369.19;2078386;28;20215;-60
2023/03/10 12:16:06;;;;;;;1.00;0.50;;;;;;;8.10;85.63;94357.81;2075480;28;20200;-60
2023/03/10 12:17:13;;;;;;;2.25;0.70;;;;;;;8.21;85.68;94382.19;2077864;28;20221;-61
2023/03/10 12:18:14;;;;;;;1.02;0.60;;;;;;;8.17;84.81;94390.19;2075071;28;20717;-60
2023/03/10 12:19:16;;;;;;;1.05;0.60;;;;;;;8.19;85.51;94366.72;2074797;28;20198;-60
2023/03/10 12:20:17;;;;;;;1.23;0.60;;;;;;;8.26;85.44;94383.50;2074622;28;20203;-60
2023/03/10 12:21:38;;;;;;;2.17;0.60;;;;;;;8.22;84.82;94379.47;2072965;28;20194;-60
2023/03/10 12:22:49;;;;;;;1.50;0.70;;;;;;;8.19;84.36;94379.72;2075157;28;20213;-60
2023/03/10 12:23:53;;;;;;;1.10;0.60;;;;;;;8.27;84.80;94389.56;2074014;28;20306;-60
2023/03/10 12:24:54;;;;;;;0.90;0.50;;;;;;;8.31;84.07;94396.19;2073603;28;20664;-59
2023/03/10 12:25:56;;;;;;;0.90;0.50;;;;;;;8.36;84.17;94365.50;2078419;28;20204;-60
2023/03/10 12:27:02;;;;;;;1.40;0.60;;;;;;;8.39;83.85;94373.06;2077627;28;20228;-60
2023/03/10 12:28:16;;;;;;;0.90;0.50;;;;;;;8.64;82.90;94377.34;2076265;28;20225;-59
2023/03/10 12:29:20;;;;;;;1.10;0.50;;;;;;;8.54;81.78;94384.16;2077130;28;20211;-59
2023/03/10 12:30:46;;;;;;;1.42;0.77;;;;;;;8.66;82.94;94378.06;2075126;28;20197;-59
2023/03/10 12:31:50;;;;;;;1.00;0.50;;;;;;;8.68;81.93;94374.53;2072776;28;20201;-59
2023/03/10 12:32:52;;;;;;;1.05;0.60;;;;;;;8.69;82.03;94366.59;2074712;28;20356;-59
2023/03/10 12:34:12;;;;;;;1.23;0.63;;;;;;;8.54;81.62;94368.56;2076787;28;20224;-59
2023/03/10 12:35:31;;;;;;;3.22;0.70;;;;;;;8.78;82.19;94378.13;2076891;28;20212;-60
2023/03/10 12:36:38;;;;;;;2.85;0.70;;;;;;;8.90;81.47;94381.56;2079518;28;20207;-60
2023/03/10 12:37:39;;;;;;;0.98;0.50;;;;;;;8.88;82.17;94389.50;2068229;28;20669;-60
2023/03/10 12:38:47;;;;;;;0.90;0.50;;;;;;;8.88;81.78;94399.09;2076800;28;20557;-60
2023/03/10 12:39:48;;;;;;;0.80;0.50;;;;;;;8.71;82.12;94387.31;2078132;28;20426;-59
2023/03/10 12:40:51;;;;;;;0.90;0.50;;;;;;;8.74;83.13;94387.91;2080632;28;20204;-59
2023/03/10 12:42:00;;;;;;;1.10;0.52;;;;;;;8.70;82.09;94401.25;2080127;28;20621;-59
2023/03/10 12:43:37;;;;;;;1.00;0.50;;;;;;;8.53;81.78;94392.09;2080664;28;20223;-59
2023/03/10 12:44:42;;;;;;;1.45;0.55;;;;;;;8.52;83.33;94387.81;2076692;28;20228;-66
2023/03/10 12:45:45;;;;;;;2.08;0.50;;;;;;;8.44;83.04;94401.34;2079687;28;20676;-66
2023/03/10 12:47:05;;;;;;;1.00;0.57;;;;;;;8.36;83.72;94391.50;2079889;28;20197;-66
2023/03/10 12:48:16;;;;;;;0.85;0.50;;;;;;;8.22;83.76;94394.25;2073576;28;20217;-66
2023/03/10 12:49:31;;;;;;;1.30;0.50;;;;;;;8.07;83.29;94388.38;2074640;28;20200;-66
2023/03/10 12:50:51;;;;;;;2.25;0.55;;;;;;;8.13;84.98;94388.75;2075175;28;20225;-65
2023/03/10 12:52:11;;;;;;;1.85;0.60;;;;;;;8.17;85.70;94402.38;2076959;28;20201;-66
2023/03/10 12:53:37;;;;;;;1.65;0.60;;;;;;;8.04;83.81;94394.63;2078808;28;20237;-67
2023/03/10 12:54:51;;;;;;;0.90;0.60;;;;;;;7.99;83.64;94394.13;2083362;28;20771;-66
2023/03/10 12:56:11;;;;;;;2.03;0.60;;;;;;;7.95;83.58;94390.06;2076429;28;20239;-67
2023/03/10 12:57:29;;;;;;;1.33;0.50;;;;;;;7.89;84.31;94386.13;2078438;28;20197;-67
2023/03/10 12:58:34;;;;;;;1.20;0.60;;;;;;;7.87;84.03;94402.75;2076437;28;20251;-66
2023/03/10 12:59:42;;;;;;;3.00;0.60;;;;;;;7.77;84.30;94402.56;2075759;28;20263;-66
2023/03/10 13:00:49;;;;;;;1.00;0.60;;;;;;;7.78;84.56;94383.44;2077733;28;20197;-67
2023/03/10 13:01:52;;;;;;;1.20;0.68;;;;;;;7.71;84.30;94383.03;2070679;28;20193;-66
2023/03/10 13:03:03;;;;;;;0.90;0.50;;;;;;;7.71;84.18;94396.03;2070331;28;20225;-67
2023/03/10 13:04:07;;;;;;;0.98;0.60;;;;;;;7.62;85.23;94384.50;2072102;28;20208;-66
2023/03/10 13:05:20;;;;;;;3.28;0.50;;;;;;;7.68;85.79;94394.47;2066438;28;20210;-66
2023/03/10 13:06:39;;;;;;;1.10;0.60;;;;;;;7.59;83.44;94394.28;2077350;28;20357;-67
2023/03/10 13:07:46;;;;;;;1.00;0.50;;;;;;;7.57;83.19;94390.94;2070561;28;20193;-67
2023/03/10 13:08:58;;;;;;;0.90;0.50;;;;;;;7.58;83.15;94403.00;2071993;28;20198;-67
2023/03/10 13:10:02;;;;;;;1.33;0.50;;;;;;;7.58;83.37;94397.81;2072648;28;20202;-67
2023/03/10 13:11:25;;;;;;;2.72;1.85;;;;;;;7.57;84.69;94401.34;2072208;28;20270;-67
2023/03/10 13:12:36;;;;;;;2.17;0.77;;;;;;;7.58;84.85;94396.06;2062674;28;20207;-67
2023/03/10 13:13:38;;;;;;;0.90;0.60;;;;;;;7.58;85.14;94390.88;2067039;28;20218;-67
2023/03/10 13:14:41;;;;;;;2.08;0.60;;;;;;;7.61;85.46;94392.41;2074734;28;20221;-67
2023/03/10 13:15:56;;;;;;;1.85;0.60;;;;;;;7.42;82.88;94398.03;2071835;28;20224;-67
2023/03/10 13:17:00;;;;;;;1.48;0.50;;;;;;;7.32;84.40;94393.44;2071519;28;20236;-67
2023/03/10 13:18:09;;;;;;;0.90;0.50;;;;;;;7.29;86.18;94400.63;2070047;28;20303;-67
2023/03/10 13:19:19;;;;;;;2.47;0.57;;;;;;;7.27;86.93;94394.72;2070375;28;20701;-67
2023/03/10 13:32:32;;;;;;;1.02;0.50;;;;;;;6.89;90.92;94398.09;2082977;28;20542;-65
2023/03/10 13:33:33;;;;;;;0.90;0.47;;;;;;;6.99;90.10;94396.56;2071135;28;20367;-66
2023/03/10 13:34:43;;;;;;;2.65;0.50;;;;;;;7.11;89.21;94382.75;2071005;28;20732;-66
2023/03/10 13:35:46;;;;;;;0.85;0.50;;;;;;;7.26;89.38;94390.44;2066839;28;20190;-66
2023/03/10 13:36:48;;;;;;;2.58;0.50;;;;;;;7.24;87.88;94393.16;2071825;28;20292;-66
2023/03/10 13:38:12;;;;;;;0.80;0.50;;;;;;;7.32;86.83;94401.25;2070346;28;20233;-66
2023/03/10 13:39:21;;;;;;;1.05;0.57;;;;;;;7.31;86.79;94394.41;2068906;28;20681;-67
2023/03/10 13:40:27;;;;;;;1.20;0.50;;;;;;;7.29;87.49;94398.03;2070825;28;20197;-67
2023/03/10 13:41:36;;;;;;;1.38;0.60;;;;;;;7.38;88.49;94392.22;2070954;28;20668;-67
2023/03/10 13:42:37;;;;;;;0.90;0.50;;;;;;;7.35;88.25;94400.19;2070514;28;20213;-66
2023/03/10 13:43:47;;;;;;;1.00;0.50;;;;;;;7.45;86.28;94397.81;2071058;28;20293;-67
2023/03/10 13:44:49;;;;;;;0.90;0.60;;;;;;;7.77;87.25;94419.00;2070722;28;20201;-67
2023/03/10 13:45:58;;;;;;;0.90;0.50;;;;;;;7.74;87.38;94416.59;2070996;28;20928;-67
2023/03/10 13:47:13;;;;;;;1.38;0.50;;;;;;;7.72;87.86;94428.03;2070057;28;20195;-67
2023/03/10 13:48:15;;;;;;;0.93;0.50;;;;;;;7.73;87.79;94433.13;2065713;28;20795;-67
2023/03/10 13:49:19;;;;;;;1.65;0.52;;;;;;;7.79;86.85;94418.88;2066166;28;20793;-67
2023/03/10 13:50:20;;;;;;;0.90;0.60;;;;;;;7.68;86.62;94432.59;2070973;28;20833;-67
2023/03/10 13:51:31;;;;;;;0.90;0.50;;;;;;;7.69;88.24;94434.28;2070176;28;20198;-67
2023/03/10 13:52:33;;;;;;;0.80;0.50;;;;;;;7.50;87.72;94443.34;2069662;28;20320;-66
2023/03/10 13:53:34;;;;;;;0.80;0.40;;;;;;;7.33;87.24;94431.47;2070981;28;20199;-66
2023/03/10 13:54:37;;;;;;;0.90;0.50;;;;;;;7.22;87.79;94446.94;2070774;28;20216;-66
2023/03/10 13:55:39;;;;;;;1.85;0.60;;;;;;;7.26;88.57;94429.38;2069054;28;20205;-66
2023/03/10 13:56:42;;;;;;;0.90;0.50;;;;;;;7.29;89.27;94432.63;2068132;28;20758;-67
2023/03/10 13:57:46;;;;;;;1.10;0.60;;;;;;;7.34;89.89;94435.72;2077320;28;20645;-66
2023/03/10 13:58:50;;;;;;;0.90;0.60;;;;;;;7.16;89.72;94427.41;2070702;28;20251;-67
2023/03/10 13:59:53;;;;;;;0.90;0.55;;;;;;;7.16;89.46;94437.78;2069686;28;20205;-66
2023/03/10 14:00:56;;;;;;;0.80;0.50;;;;;;;7.00;89.63;94440.56;2070406;28;20201;-67
2023/03/10 14:01:59;;;;;;;0.80;0.50;;;;;;;6.98;90.52;94439.00;2070447;28;20667;-67
2023/03/10 14:03:01;;;;;;;0.95;0.50;;;;;;;6.92;91.07;94442.84;2069768;28;20224;-67
2023/03/10 14:04:07;;;;;;;1.00;0.50;;;;;;;6.85;91.89;94442.38;2070570;28;20225;-67
2023/03/10 14:05:45;;;;;;;1.00;0.50;;;;;;;6.65;92.97;94414.31;2069572;28;20199;-67
2023/03/10 14:07:06;;;;;;;0.90;0.50;;;;;;;6.68;93.25;94442.66;2069892;28;20207;-67
2023/03/10 14:08:18;;;;;;;2.25;0.55;;;;;;;6.65;93.99;94435.91;2069990;28;20218;-67
2023/03/10 14:09:21;;;;;;;1.20;0.60;;;;;;;6.68;95.28;94440.06;2070334;28;20546;-67
2023/03/10 15:48:22;;;;;;;2.28;1.00;;;;;;;5.01;90.22;94615.69;2092393;27;20576;-67
2023/03/10 15:49:24;;;;;;;5.00;1.50;;;;;;;5.06;89.99;94600.75;2092007;28;20946;-66
2023/03/10 15:50:26;;;;;;;7.55;1.10;;;;;;;5.15;90.73;94596.81;2090364;28;20196;-66
2023/03/10 15:51:28;;;;;;;2.38;1.60;;;;;;;5.31;88.99;94595.03;2089778;28;20199;-66
2023/03/10 15:52:29;;;;;;;6.88;1.70;;;;;;;5.42;89.07;94598.78;2089160;28;20200;-66
2023/03/10 15:53:31;;;;;;;7.63;1.35;;;;;;;5.30;88.02;94601.13;2086303;28;20227;-67
2023/03/10 15:54:33;;;;;;;4.85;1.60;;;;;;;5.27;88.66;94613.41;2086685;28;20200;-66
2023/03/10 15:55:39;;;;;;;6.93;1.50;;;;;;;5.12;89.64;94613.34;2087253;28;20208;-66
2023/03/10 15:56:41;;;;;;;12.77;1.25;;;;;;;5.36;86.45;94621.50;2086724;28;20243;-67
2023/03/10 15:57:43;;;;;;;2.75;0.80;;;;;;;5.51;86.26;94626.72;2086940;28;20193;-67
2023/03/10 15:58:45;;;;;;;3.58;1.10;;;;;;;5.50;86.23;94633.66;2089031;28;20659;-67
2023/03/10 15:59:47;;;;;;;2.58;1.00;;;;;;;5.69;86.53;94640.38;2088835;28;20208;-69
2023/03/10 16:00:49;;;;;;;3.38;1.20;;;;;;;5.70;84.81;94653.25;2088074;28;20296;-65
2023/03/10 16:01:51;;;;;;;3.33;0.90;;;;;;;5.99;82.29;94652.50;2088809;28;20211;-66
2023/03/10 16:02:53;;;;;;;5.03;1.50;;;;;;;6.29;82.85;94634.31;2087120;28;20261;-65
2023/03/10 16:03:55;;;;;;;4.18;1.25;;;;;;;6.14;84.31;94645.59;2092832;28;20214;-66
2023/03/10 16:04:57;;;;;;;5.10;1.30;;;;;;;5.78;85.34;94644.22;2083620;28;20301;-66
2023/03/10 16:05:58;;;;;;;6.63;2.45;;;;;;;5.60;84.54;94653.84;2090279;28;20192;-66
2023/03/10 16:07:02;;;;;;;5.18;1.20;;;;;;;5.45;84.48;94647.78;2089725;28;20292;-66
2023/03/10 16:08:05;;;;;;;5.30;1.45;;;;;;;5.37;83.92;94667.16;2088968;28;20228;-66
2023/03/10 16:09:06;;;;;;;2.83;1.00;;;;;;;5.41;84.80;94654.91;2089439;28;20204;-66
2023/03/10 16:10:12;;;;;;;8.38;1.10;;;;;;;5.39;85.44;94648.97;2104815;28;20203;-66
2023/03/10 16:11:17;;;;;;;6.68;1.35;;;;;;;5.35;85.46;94656.06;2104883;28;20210;-66
